This is the latest recevied weather packets stored in our database for station/object K8GLX. If no packets are shown the sender has not sent any weather packets the latest 1 day(s).
| Time | Temp. | Humidity | Pressure | Rain* | Wind** | Luminosity | Snow |
|---|---|---|---|---|---|---|---|
| 1777998429 | 15.56° C | 74% | 1007 hPa | 0 mm | 4.47 m/s, 318° | 205 W/m² | - |
| 1777998135 | 16.11° C | 73% | 1007.2 hPa | 0 mm | 3.13 m/s, 277° | 192 W/m² | - |
| 1777997829 | 16.11° C | 72% | 1007 hPa | 0 mm | 3.58 m/s, 267° | 167 W/m² | - |
| 1777997535 | 16.67° C | 70% | 1006.9 hPa | 0 mm | 3.13 m/s, 293° | 261 W/m² | - |
| 1777997229 | 17.22° C | 67% | 1007.1 hPa | 0 mm | 3.58 m/s, 274° | 484 W/m² | - |
| 1777996934 | 17.78° C | 66% | 1006.9 hPa | 0 mm | 5.36 m/s, 283° | 321 W/m² | - |
| 1777996628 | 17.78° C | 65% | 1006.9 hPa | 0 mm | 4.02 m/s, 262° | 631 W/m² | - |
| 1777996334 | 17.78° C | 65% | 1006.8 hPa | 0 mm | 4.02 m/s, 269° | 620 W/m² | - |
| 1777996029 | 17.78° C | 65% | 1006.7 hPa | 0 mm | 3.58 m/s, 275° | 560 W/m² | - |
| 1777995735 | 17.78° C | 66% | 1006.5 hPa | 0 mm | 4.47 m/s, 290° | 426 W/m² | - |
| 1777995428 | 18.89° C | 62% | 1006.4 hPa | 0 mm | 3.13 m/s, 285° | 282 W/m² | - |
| 1777995262 | 19.44° C | 60% | 1006.4 hPa | 0 mm | 3.13 m/s, 280° | 402 W/m² | - |
| 1777994950 | 18.89° C | 59% | 1006.1 hPa | 0 mm | 4.02 m/s, 258° | 548 W/m² | - |
| 1777994662 | 19.44° C | 59% | 1005.9 hPa | 0 mm | 3.13 m/s, 278° | 577 W/m² | - |
| 1777994229 | 18.89° C | 61% | 1005.7 hPa | 0 mm | 2.24 m/s, 254° | 620 W/m² | - |
| 1777993934 | 18.89° C | 61% | 1005.7 hPa | 0 mm | 4.02 m/s, 256° | 450 W/m² | - |
| 1777993628 | 18.33° C | 62% | 1006 hPa | 0 mm | 3.58 m/s, 231° | 647 W/m² | - |
| 1777993347 | 18.89° C | 62% | 1006 hPa | 0 mm | 4.92 m/s, 256° | 236 W/m² | - |
| 1777993028 | 18.89° C | 63% | 1006.3 hPa | 0 mm | 3.58 m/s, 250° | 237 W/m² | - |
| 1777992734 | 18.33° C | 63% | 1006.5 hPa | 0 mm | 3.58 m/s, 250° | 220 W/m² | - |
| 1777992428 | 18.33° C | 63% | 1006.2 hPa | 0 mm | 4.92 m/s, 255° | 235 W/m² | - |
| 1777992135 | 18.33° C | 63% | 1006.1 hPa | 0 mm | 6.71 m/s, 257° | 173 W/m² | - |
| 1777991829 | 18.89° C | 63% | 1006.2 hPa | 0 mm | 3.13 m/s, 273° | 148 W/m² | - |
| 1777991538 | 18.89° C | 62% | 1005.9 hPa | 0 mm | 3.13 m/s, 245° | 134 W/m² | - |
| 1777991229 | 18.89° C | 62% | 1006 hPa | 0 mm | 4.02 m/s, 210° | 169 W/m² | - |
* Rain latest hour (hover to see other rain measurements)
** Current wind speed in m/s (hover to see current wind gust speed)